<?xml version="1.0" encoding="UTF-8"?>
<gpx xmlns="http://www.topografix.com/GPX/1/1" xmlns:gpsies="http://www.gpsies.com/GPX/1/0" creator="GPSies http://www.gpsies.com - &amp;#1040;&amp;#1090;&amp;#1086;&amp;#1084;&amp;#1085;&amp;#1099;&amp;#1081;-200" version="1.1" xmlns:xsi="http://www.w3.org/2001/XMLSchema-instance" xsi:schemaLocation="http://www.topografix.com/GPX/1/1 http://www.topografix.com/GPX/1/1/gpx.xsd http://www.gpsies.com/GPX/1/0 http://www.gpsies.com/gpsies.xsd">
  <metadata>
    <name>Атомный-200</name>
    <author>
      <name>U_N_E</name>
      <link href="http://www.gpsies.com/mapUser.do?username=U_N_E">
        <text>U_N_E on GPSies.com</text>
        <type>GPSiesUserOnWeb</type>
      </link>
    </author>
    <link href="http://www.gpsies.com/map.do?fileId=rgxfhbbiounnqfem">
      <text>Атомный-200 on GPSies.com</text>
      <type>trackOnWeb</type>
    </link>
    <time>2017-07-31T19:00:46Z</time>
    <extensions>
      <gpsies:property>one-way trip</gpsies:property>
      <gpsies:trackLengthMeter>205918.9473706177</gpsies:trackLengthMeter>
      <gpsies:totalAscentMeter>1711.0</gpsies:totalAscentMeter>
      <gpsies:totalDescentMeter>1742.0</gpsies:totalDescentMeter>
      <gpsies:minHeightMeter>86.0</gpsies:minHeightMeter>
      <gpsies:maxHeightMeter>247.0</gpsies:maxHeightMeter>
    </extensions>
  </metadata>
  <trk>
    <name>Атомный-200 on GPSies.com</name>
    <link href="http://www.gpsies.com/map.do?fileId=rgxfhbbiounnqfem">
      <type>trackOnWeb</type>
    </link>
    <link href="http://www.gpsies.com/charts/rg/map/rgxfhbbiounnqfem_map.png">
      <type>elevationChartUrlMap</type>
    </link>
    <link href="http://www.gpsies.com/charts/rg/mapThumb/rgxfhbbiounnqfem_mapThumb.png">
      <type>elevationChartUrlMapThumb</type>
    </link>
    <link href="http://www.gpsies.com/charts/rg/tab/rgxfhbbiounnqfem_tab.png">
      <type>elevationChartUrlTab</type>
    </link>
    <trkseg>
      <trkpt lat="51.65264330" lon="39.04797970">
        <ele>137.00000</ele>
        <time>2010-01-01T00:00:00Z</time>
      </trkpt>
      <trkpt lat="51.65256350" lon="39.04523840">
        <ele>138.00000</ele>
        <time>2010-01-01T00:01:08Z</time>
      </trkpt>
      <trkpt lat="51.65251020" lon="39.04450890">
        <ele>138.00000</ele>
        <time>2010-01-01T00:01:26Z</time>
      </trkpt>
      <trkpt lat="51.65209750" lon="39.04049630">
        <ele>141.00000</ele>
        <time>2010-01-01T00:03:07Z</time>
      </trkpt>
      <trkpt lat="51.65149840" lon="39.03684850">
        <ele>139.00000</ele>
        <time>2010-01-01T00:04:41Z</time>
      </trkpt>
      <trkpt lat="51.65104580" lon="39.03502460">
        <ele>137.00000</ele>
        <time>2010-01-01T00:05:29Z</time>
      </trkpt>
      <trkpt lat="51.65052650" lon="39.03335090">
        <ele>138.00000</ele>
        <time>2010-01-01T00:06:16Z</time>
      </trkpt>
      <trkpt lat="51.64996740" lon="39.03154850">
        <ele>148.00000</ele>
        <time>2010-01-01T00:07:06Z</time>
      </trkpt>
      <trkpt lat="51.64908860" lon="39.02963870">
        <ele>152.00000</ele>
        <time>2010-01-01T00:08:05Z</time>
      </trkpt>
      <trkpt lat="51.64734450" lon="39.02605530">
        <ele>155.00000</ele>
        <time>2010-01-01T00:09:58Z</time>
      </trkpt>
      <trkpt lat="51.64500110" lon="39.02144190">
        <ele>146.00000</ele>
        <time>2010-01-01T00:12:26Z</time>
      </trkpt>
      <trkpt lat="51.64299040" lon="39.01736490">
        <ele>150.00000</ele>
        <time>2010-01-01T00:14:36Z</time>
      </trkpt>
      <trkpt lat="51.63976790" lon="39.01086330">
        <ele>166.00000</ele>
        <time>2010-01-01T00:18:02Z</time>
      </trkpt>
      <trkpt lat="51.63775700" lon="39.00663610">
        <ele>172.00000</ele>
        <time>2010-01-01T00:20:15Z</time>
      </trkpt>
      <trkpt lat="51.63643860" lon="39.00391100">
        <ele>173.00000</ele>
        <time>2010-01-01T00:21:40Z</time>
      </trkpt>
      <trkpt lat="51.63559960" lon="39.00193690">
        <ele>169.00000</ele>
        <time>2010-01-01T00:22:40Z</time>
      </trkpt>
      <trkpt lat="51.63517340" lon="39.00052070">
        <ele>173.00000</ele>
        <time>2010-01-01T00:23:19Z</time>
      </trkpt>
      <trkpt lat="51.63440090" lon="38.99805300">
        <ele>178.00000</ele>
        <time>2010-01-01T00:24:28Z</time>
      </trkpt>
      <trkpt lat="51.63366840" lon="38.99511330">
        <ele>181.00000</ele>
        <time>2010-01-01T00:25:46Z</time>
      </trkpt>
      <trkpt lat="51.63317570" lon="38.99313920">
        <ele>183.00000</ele>
        <time>2010-01-01T00:26:39Z</time>
      </trkpt>
      <trkpt lat="51.63288260" lon="38.99294610">
        <ele>181.00000</ele>
        <time>2010-01-01T00:26:52Z</time>
      </trkpt>
      <trkpt lat="51.62808760" lon="38.99026390">
        <ele>179.00000</ele>
        <time>2010-01-01T00:30:15Z</time>
      </trkpt>
      <trkpt lat="51.62365180" lon="38.98779630">
        <ele>181.00000</ele>
        <time>2010-01-01T00:33:23Z</time>
      </trkpt>
      <trkpt lat="51.61922890" lon="38.98524280">
        <ele>181.00000</ele>
        <time>2010-01-01T00:36:31Z</time>
      </trkpt>
      <trkpt lat="51.61537840" lon="38.98303270">
        <ele>180.00000</ele>
        <time>2010-01-01T00:39:15Z</time>
      </trkpt>
      <trkpt lat="51.61247380" lon="38.98131600">
        <ele>181.00000</ele>
        <time>2010-01-01T00:41:19Z</time>
      </trkpt>
      <trkpt lat="51.61154100" lon="38.98067230">
        <ele>177.00000</ele>
        <time>2010-01-01T00:41:59Z</time>
      </trkpt>
      <trkpt lat="51.61060830" lon="38.97977110">
        <ele>176.00000</ele>
        <time>2010-01-01T00:42:43Z</time>
      </trkpt>
      <trkpt lat="51.60874270" lon="38.97775410">
        <ele>174.00000</ele>
        <time>2010-01-01T00:44:13Z</time>
      </trkpt>
      <trkpt lat="51.60589090" lon="38.97423500">
        <ele>175.00000</ele>
        <time>2010-01-01T00:46:36Z</time>
      </trkpt>
      <trkpt lat="51.60415840" lon="38.97204630">
        <ele>176.00000</ele>
        <time>2010-01-01T00:48:05Z</time>
      </trkpt>
      <trkpt lat="51.60363860" lon="38.97155280">
        <ele>176.00000</ele>
        <time>2010-01-01T00:48:29Z</time>
      </trkpt>
      <trkpt lat="51.60325210" lon="38.97133820">
        <ele>176.00000</ele>
        <time>2010-01-01T00:48:45Z</time>
      </trkpt>
      <trkpt lat="51.60278560" lon="38.97127380">
        <ele>176.00000</ele>
        <time>2010-01-01T00:49:04Z</time>
      </trkpt>
      <trkpt lat="51.60222590" lon="38.97138110">
        <ele>176.00000</ele>
        <time>2010-01-01T00:49:26Z</time>
      </trkpt>
      <trkpt lat="51.60036000" lon="38.97228240">
        <ele>174.00000</ele>
        <time>2010-01-01T00:50:44Z</time>
      </trkpt>
      <trkpt lat="51.59849400" lon="38.97352690">
        <ele>173.00000</ele>
        <time>2010-01-01T00:52:05Z</time>
      </trkpt>
      <trkpt lat="51.59784080" lon="38.97406330">
        <ele>175.00000</ele>
        <time>2010-01-01T00:52:35Z</time>
      </trkpt>
      <trkpt lat="51.59712110" lon="38.97500750">
        <ele>170.00000</ele>
        <time>2010-01-01T00:53:12Z</time>
      </trkpt>
      <trkpt lat="51.59617470" lon="38.97593020">
        <ele>169.00000</ele>
        <time>2010-01-01T00:53:56Z</time>
      </trkpt>
      <trkpt lat="51.59572150" lon="38.97674560">
        <ele>171.00000</ele>
        <time>2010-01-01T00:54:23Z</time>
      </trkpt>
      <trkpt lat="51.59481510" lon="38.97734640">
        <ele>171.00000</ele>
        <time>2010-01-01T00:55:03Z</time>
      </trkpt>
      <trkpt lat="51.59381530" lon="38.97773260">
        <ele>167.00000</ele>
        <time>2010-01-01T00:55:44Z</time>
      </trkpt>
      <trkpt lat="51.59174910" lon="38.97758240">
        <ele>171.00000</ele>
        <time>2010-01-01T00:57:06Z</time>
      </trkpt>
      <trkpt lat="51.58448320" lon="38.97629490">
        <ele>168.00000</ele>
        <time>2010-01-01T01:01:59Z</time>
      </trkpt>
      <trkpt lat="51.57958980" lon="38.97547960">
        <ele>164.00000</ele>
        <time>2010-01-01T01:05:16Z</time>
      </trkpt>
      <trkpt lat="51.57626940" lon="38.97492170">
        <ele>167.00000</ele>
        <time>2010-01-01T01:07:30Z</time>
      </trkpt>
      <trkpt lat="51.57274870" lon="38.97470710">
        <ele>163.00000</ele>
        <time>2010-01-01T01:09:51Z</time>
      </trkpt>
      <trkpt lat="51.57052150" lon="38.97455690">
        <ele>172.00000</ele>
        <time>2010-01-01T01:11:20Z</time>
      </trkpt>
      <trkpt lat="51.56541310" lon="38.97384880">
        <ele>179.00000</ele>
        <time>2010-01-01T01:14:45Z</time>
      </trkpt>
      <trkpt lat="51.56049090" lon="38.97318360">
        <ele>179.00000</ele>
        <time>2010-01-01T01:18:03Z</time>
      </trkpt>
      <trkpt lat="51.55434080" lon="38.97234670">
        <ele>182.00000</ele>
        <time>2010-01-01T01:22:10Z</time>
      </trkpt>
      <trkpt lat="51.55386050" lon="38.97228240">
        <ele>181.00000</ele>
        <time>2010-01-01T01:22:29Z</time>
      </trkpt>
      <trkpt lat="51.53189440" lon="38.96932120">
        <ele>191.00000</ele>
        <time>2010-01-01T01:37:12Z</time>
      </trkpt>
      <trkpt lat="51.52639450" lon="38.93395900">
        <ele>106.00000</ele>
        <time>2010-01-01T01:52:19Z</time>
      </trkpt>
      <trkpt lat="51.52548670" lon="38.92940990">
        <ele>107.00000</ele>
        <time>2010-01-01T01:54:18Z</time>
      </trkpt>
      <trkpt lat="51.52465900" lon="38.91640660">
        <ele>130.00000</ele>
        <time>2010-01-01T01:59:44Z</time>
      </trkpt>
      <trkpt lat="51.52383120" lon="38.90254490">
        <ele>152.00000</ele>
        <time>2010-01-01T02:05:31Z</time>
      </trkpt>
      <trkpt lat="51.52260290" lon="38.88190260">
        <ele>182.00000</ele>
        <time>2010-01-01T02:14:07Z</time>
      </trkpt>
      <trkpt lat="51.52185530" lon="38.86422150">
        <ele>187.00000</ele>
        <time>2010-01-01T02:21:29Z</time>
      </trkpt>
      <trkpt lat="51.52172180" lon="38.85456560">
        <ele>187.00000</ele>
        <time>2010-01-01T02:25:29Z</time>
      </trkpt>
      <trkpt lat="51.52212230" lon="38.84924410">
        <ele>189.00000</ele>
        <time>2010-01-01T02:27:43Z</time>
      </trkpt>
      <trkpt lat="51.52321710" lon="38.84048930">
        <ele>190.00000</ele>
        <time>2010-01-01T02:31:25Z</time>
      </trkpt>
      <trkpt lat="51.52449880" lon="38.83778570">
        <ele>193.00000</ele>
        <time>2010-01-01T02:32:50Z</time>
      </trkpt>
      <trkpt lat="51.53047940" lon="38.83332250">
        <ele>195.00000</ele>
        <time>2010-01-01T02:37:14Z</time>
      </trkpt>
      <trkpt lat="51.53875490" lon="38.82800100">
        <ele>180.00000</ele>
        <time>2010-01-01T02:43:11Z</time>
      </trkpt>
      <trkpt lat="51.54881690" lon="38.82302280">
        <ele>161.00000</ele>
        <time>2010-01-01T02:50:12Z</time>
      </trkpt>
      <trkpt lat="51.55263300" lon="38.82113450">
        <ele>156.00000</ele>
        <time>2010-01-01T02:52:52Z</time>
      </trkpt>
      <trkpt lat="51.55711580" lon="38.81783000">
        <ele>150.00000</ele>
        <time>2010-01-01T02:56:09Z</time>
      </trkpt>
      <trkpt lat="51.56346560" lon="38.81014820">
        <ele>128.00000</ele>
        <time>2010-01-01T03:01:27Z</time>
      </trkpt>
      <trkpt lat="51.56738720" lon="38.80628580">
        <ele>121.00000</ele>
        <time>2010-01-01T03:04:31Z</time>
      </trkpt>
      <trkpt lat="51.57029470" lon="38.80160800">
        <ele>110.00000</ele>
        <time>2010-01-01T03:07:16Z</time>
      </trkpt>
      <trkpt lat="51.57109500" lon="38.79963390">
        <ele>109.00000</ele>
        <time>2010-01-01T03:08:15Z</time>
      </trkpt>
      <trkpt lat="51.57178850" lon="38.79452700">
        <ele>102.00000</ele>
        <time>2010-01-01T03:10:25Z</time>
      </trkpt>
      <trkpt lat="51.57178850" lon="38.79323950">
        <ele>105.00000</ele>
        <time>2010-01-01T03:10:57Z</time>
      </trkpt>
      <trkpt lat="51.57285540" lon="38.79087920">
        <ele>114.00000</ele>
        <time>2010-01-01T03:12:09Z</time>
      </trkpt>
      <trkpt lat="51.57410900" lon="38.78976340">
        <ele>124.00000</ele>
        <time>2010-01-01T03:13:07Z</time>
      </trkpt>
      <trkpt lat="51.57352220" lon="38.78894800">
        <ele>123.00000</ele>
        <time>2010-01-01T03:13:38Z</time>
      </trkpt>
      <trkpt lat="51.57245530" lon="38.78920550">
        <ele>119.00000</ele>
        <time>2010-01-01T03:14:21Z</time>
      </trkpt>
      <trkpt lat="51.57136170" lon="38.78942010">
        <ele>113.00000</ele>
        <time>2010-01-01T03:15:05Z</time>
      </trkpt>
      <trkpt lat="51.56957450" lon="38.78705970">
        <ele>115.00000</ele>
        <time>2010-01-01T03:16:37Z</time>
      </trkpt>
      <trkpt lat="51.56770730" lon="38.78615850">
        <ele>114.00000</ele>
        <time>2010-01-01T03:17:56Z</time>
      </trkpt>
      <trkpt lat="51.56658690" lon="38.78336900">
        <ele>117.00000</ele>
        <time>2010-01-01T03:19:18Z</time>
      </trkpt>
      <trkpt lat="51.56487960" lon="38.78010740">
        <ele>122.00000</ele>
        <time>2010-01-01T03:21:04Z</time>
      </trkpt>
      <trkpt lat="51.56421260" lon="38.77821920">
        <ele>121.00000</ele>
        <time>2010-01-01T03:21:58Z</time>
      </trkpt>
      <trkpt lat="51.56514630" lon="38.77208230">
        <ele>131.00000</ele>
        <time>2010-01-01T03:24:36Z</time>
      </trkpt>
      <trkpt lat="51.56415930" lon="38.77165310">
        <ele>127.00000</ele>
        <time>2010-01-01T03:25:16Z</time>
      </trkpt>
      <trkpt lat="51.56351900" lon="38.76800530">
        <ele>122.00000</ele>
        <time>2010-01-01T03:26:51Z</time>
      </trkpt>
      <trkpt lat="51.56274530" lon="38.76641750">
        <ele>113.00000</ele>
        <time>2010-01-01T03:27:41Z</time>
      </trkpt>
      <trkpt lat="51.56119790" lon="38.76307010">
        <ele>109.00000</ele>
        <time>2010-01-01T03:29:25Z</time>
      </trkpt>
      <trkpt lat="51.56109120" lon="38.76178260">
        <ele>109.00000</ele>
        <time>2010-01-01T03:29:57Z</time>
      </trkpt>
      <trkpt lat="51.56378580" lon="38.75371450">
        <ele>126.00000</ele>
        <time>2010-01-01T03:33:45Z</time>
      </trkpt>
      <trkpt lat="51.56338560" lon="38.75281330">
        <ele>124.00000</ele>
        <time>2010-01-01T03:34:13Z</time>
      </trkpt>
      <trkpt lat="51.56269200" lon="38.75216960">
        <ele>124.00000</ele>
        <time>2010-01-01T03:34:45Z</time>
      </trkpt>
      <trkpt lat="51.56162480" lon="38.75023840">
        <ele>126.00000</ele>
        <time>2010-01-01T03:35:49Z</time>
      </trkpt>
      <trkpt lat="51.55933030" lon="38.74573230">
        <ele>124.00000</ele>
        <time>2010-01-01T03:38:14Z</time>
      </trkpt>
      <trkpt lat="51.55788950" lon="38.74367230">
        <ele>121.00000</ele>
        <time>2010-01-01T03:39:31Z</time>
      </trkpt>
      <trkpt lat="51.55698240" lon="38.74358650">
        <ele>119.00000</ele>
        <time>2010-01-01T03:40:07Z</time>
      </trkpt>
      <trkpt lat="51.55567490" lon="38.74401560">
        <ele>116.00000</ele>
        <time>2010-01-01T03:41:01Z</time>
      </trkpt>
      <trkpt lat="51.55191250" lon="38.74641890">
        <ele>105.00000</ele>
        <time>2010-01-01T03:43:43Z</time>
      </trkpt>
      <trkpt lat="51.54887030" lon="38.74817840">
        <ele>106.00000</ele>
        <time>2010-01-01T03:45:52Z</time>
      </trkpt>
      <trkpt lat="51.54654850" lon="38.74955170">
        <ele>113.00000</ele>
        <time>2010-01-01T03:47:31Z</time>
      </trkpt>
      <trkpt lat="51.54334580" lon="38.74959460">
        <ele>127.00000</ele>
        <time>2010-01-01T03:49:40Z</time>
      </trkpt>
      <trkpt lat="51.53677960" lon="38.74963760">
        <ele>140.00000</ele>
        <time>2010-01-01T03:54:02Z</time>
      </trkpt>
      <trkpt lat="51.52655470" lon="38.74942300">
        <ele>168.00000</ele>
        <time>2010-01-01T04:00:52Z</time>
      </trkpt>
      <trkpt lat="51.52022640" lon="38.74929420">
        <ele>200.00000</ele>
        <time>2010-01-01T04:05:05Z</time>
      </trkpt>
      <trkpt lat="51.51907810" lon="38.74907970">
        <ele>205.00000</ele>
        <time>2010-01-01T04:05:51Z</time>
      </trkpt>
      <trkpt lat="51.51606040" lon="38.74603270">
        <ele>213.00000</ele>
        <time>2010-01-01T04:08:14Z</time>
      </trkpt>
      <trkpt lat="51.50679250" lon="38.73667710">
        <ele>217.00000</ele>
        <time>2010-01-01T04:15:32Z</time>
      </trkpt>
      <trkpt lat="51.49949970" lon="38.73337260">
        <ele>206.00000</ele>
        <time>2010-01-01T04:20:35Z</time>
      </trkpt>
      <trkpt lat="51.49776320" lon="38.73337260">
        <ele>210.00000</ele>
        <time>2010-01-01T04:21:45Z</time>
      </trkpt>
      <trkpt lat="51.49340810" lon="38.73414510">
        <ele>212.00000</ele>
        <time>2010-01-01T04:24:40Z</time>
      </trkpt>
      <trkpt lat="51.49228590" lon="38.73350140">
        <ele>216.00000</ele>
        <time>2010-01-01T04:25:28Z</time>
      </trkpt>
      <trkpt lat="51.49129720" lon="38.73225680">
        <ele>219.00000</ele>
        <time>2010-01-01T04:26:18Z</time>
      </trkpt>
      <trkpt lat="51.48835790" lon="38.72809410">
        <ele>226.00000</ele>
        <time>2010-01-01T04:28:55Z</time>
      </trkpt>
      <trkpt lat="51.48261220" lon="38.72255800">
        <ele>228.00000</ele>
        <time>2010-01-01T04:33:23Z</time>
      </trkpt>
      <trkpt lat="51.47932490" lon="38.72002600">
        <ele>229.00000</ele>
        <time>2010-01-01T04:35:49Z</time>
      </trkpt>
      <trkpt lat="51.47625110" lon="38.71912470">
        <ele>228.00000</ele>
        <time>2010-01-01T04:37:54Z</time>
      </trkpt>
      <trkpt lat="51.47419290" lon="38.71985430">
        <ele>224.00000</ele>
        <time>2010-01-01T04:39:19Z</time>
      </trkpt>
      <trkpt lat="51.47178710" lon="38.72101300">
        <ele>222.00000</ele>
        <time>2010-01-01T04:40:59Z</time>
      </trkpt>
      <trkpt lat="51.47004950" lon="38.72251510">
        <ele>218.00000</ele>
        <time>2010-01-01T04:42:18Z</time>
      </trkpt>
      <trkpt lat="51.46748300" lon="38.72560500">
        <ele>211.00000</ele>
        <time>2010-01-01T04:44:27Z</time>
      </trkpt>
      <trkpt lat="51.46561160" lon="38.72783660">
        <ele>205.00000</ele>
        <time>2010-01-01T04:46:00Z</time>
      </trkpt>
      <trkpt lat="51.46438170" lon="38.72882360">
        <ele>203.00000</ele>
        <time>2010-01-01T04:46:55Z</time>
      </trkpt>
      <trkpt lat="51.46031760" lon="38.72843740">
        <ele>162.00000</ele>
        <time>2010-01-01T04:49:38Z</time>
      </trkpt>
      <trkpt lat="51.45414060" lon="38.72766490">
        <ele>172.00000</ele>
        <time>2010-01-01T04:53:46Z</time>
      </trkpt>
      <trkpt lat="51.45160000" lon="38.72710700">
        <ele>189.00000</ele>
        <time>2010-01-01T04:55:29Z</time>
      </trkpt>
      <trkpt lat="51.44766850" lon="38.72603410">
        <ele>198.00000</ele>
        <time>2010-01-01T04:58:08Z</time>
      </trkpt>
      <trkpt lat="51.44614390" lon="38.72624870">
        <ele>198.00000</ele>
        <time>2010-01-01T04:59:10Z</time>
      </trkpt>
      <trkpt lat="51.44467280" lon="38.72757910">
        <ele>205.00000</ele>
        <time>2010-01-01T05:00:17Z</time>
      </trkpt>
      <trkpt lat="51.43985790" lon="38.73483180">
        <ele>218.00000</ele>
        <time>2010-01-01T05:04:42Z</time>
      </trkpt>
      <trkpt lat="51.43335710" lon="38.74423020">
        <ele>226.00000</ele>
        <time>2010-01-01T05:10:32Z</time>
      </trkpt>
      <trkpt lat="51.42744400" lon="38.75156870">
        <ele>225.00000</ele>
        <time>2010-01-01T05:15:31Z</time>
      </trkpt>
      <trkpt lat="51.41898770" lon="38.76246920">
        <ele>194.00000</ele>
        <time>2010-01-01T05:22:46Z</time>
      </trkpt>
      <trkpt lat="51.41607040" lon="38.76620290">
        <ele>167.00000</ele>
        <time>2010-01-01T05:25:15Z</time>
      </trkpt>
      <trkpt lat="51.41454480" lon="38.76753330">
        <ele>149.00000</ele>
        <time>2010-01-01T05:26:25Z</time>
      </trkpt>
      <trkpt lat="51.41213580" lon="38.76821990">
        <ele>142.00000</ele>
        <time>2010-01-01T05:28:03Z</time>
      </trkpt>
      <trkpt lat="51.40075850" lon="38.77096650">
        <ele>196.00000</ele>
        <time>2010-01-01T05:35:43Z</time>
      </trkpt>
      <trkpt lat="51.38758400" lon="38.76783370">
        <ele>217.00000</ele>
        <time>2010-01-01T05:44:36Z</time>
      </trkpt>
      <trkpt lat="51.38139710" lon="38.76620290">
        <ele>222.00000</ele>
        <time>2010-01-01T05:48:47Z</time>
      </trkpt>
      <trkpt lat="51.37263760" lon="38.76663200">
        <ele>227.00000</ele>
        <time>2010-01-01T05:54:38Z</time>
      </trkpt>
      <trkpt lat="51.36658270" lon="38.76710410">
        <ele>231.00000</ele>
        <time>2010-01-01T05:58:41Z</time>
      </trkpt>
      <trkpt lat="51.36489460" lon="38.76821990">
        <ele>228.00000</ele>
        <time>2010-01-01T05:59:54Z</time>
      </trkpt>
      <trkpt lat="51.36390320" lon="38.76869200">
        <ele>226.00000</ele>
        <time>2010-01-01T06:00:35Z</time>
      </trkpt>
      <trkpt lat="51.36167920" lon="38.76787660">
        <ele>226.00000</ele>
        <time>2010-01-01T06:02:07Z</time>
      </trkpt>
      <trkpt lat="51.35894590" lon="38.76375670">
        <ele>230.00000</ele>
        <time>2010-01-01T06:04:37Z</time>
      </trkpt>
      <trkpt lat="51.35717720" lon="38.76173970">
        <ele>230.00000</ele>
        <time>2010-01-01T06:06:04Z</time>
      </trkpt>
      <trkpt lat="51.35219230" lon="38.75719070">
        <ele>214.00000</ele>
        <time>2010-01-01T06:09:53Z</time>
      </trkpt>
      <trkpt lat="51.34953880" lon="38.75577440">
        <ele>200.00000</ele>
        <time>2010-01-01T06:11:45Z</time>
      </trkpt>
      <trkpt lat="51.34519640" lon="38.75358580">
        <ele>163.00000</ele>
        <time>2010-01-01T06:14:48Z</time>
      </trkpt>
      <trkpt lat="51.33865530" lon="38.74839300">
        <ele>178.00000</ele>
        <time>2010-01-01T06:19:40Z</time>
      </trkpt>
      <trkpt lat="51.33680530" lon="38.74624720">
        <ele>196.00000</ele>
        <time>2010-01-01T06:21:11Z</time>
      </trkpt>
      <trkpt lat="51.33575970" lon="38.73882290">
        <ele>216.00000</ele>
        <time>2010-01-01T06:24:22Z</time>
      </trkpt>
      <trkpt lat="51.33557200" lon="38.73500340">
        <ele>218.00000</ele>
        <time>2010-01-01T06:25:57Z</time>
      </trkpt>
      <trkpt lat="51.33586690" lon="38.72929570">
        <ele>225.00000</ele>
        <time>2010-01-01T06:28:21Z</time>
      </trkpt>
      <trkpt lat="51.33565250" lon="38.72620580">
        <ele>229.00000</ele>
        <time>2010-01-01T06:29:38Z</time>
      </trkpt>
      <trkpt lat="51.33452640" lon="38.72200010">
        <ele>229.00000</ele>
        <time>2010-01-01T06:31:33Z</time>
      </trkpt>
      <trkpt lat="51.33366840" lon="38.71989720">
        <ele>229.00000</ele>
        <time>2010-01-01T06:32:36Z</time>
      </trkpt>
      <trkpt lat="51.33240810" lon="38.71762270">
        <ele>227.00000</ele>
        <time>2010-01-01T06:33:52Z</time>
      </trkpt>
      <trkpt lat="51.32978030" lon="38.71406070">
        <ele>226.00000</ele>
        <time>2010-01-01T06:36:10Z</time>
      </trkpt>
      <trkpt lat="51.32634790" lon="38.71024130">
        <ele>223.00000</ele>
        <time>2010-01-01T06:38:57Z</time>
      </trkpt>
      <trkpt lat="51.32425610" lon="38.70796680">
        <ele>216.00000</ele>
        <time>2010-01-01T06:40:38Z</time>
      </trkpt>
      <trkpt lat="51.32216420" lon="38.70655050">
        <ele>209.00000</ele>
        <time>2010-01-01T06:42:09Z</time>
      </trkpt>
      <trkpt lat="51.32063550" lon="38.70607850">
        <ele>195.00000</ele>
        <time>2010-01-01T06:43:11Z</time>
      </trkpt>
      <trkpt lat="51.31910670" lon="38.70616430">
        <ele>177.00000</ele>
        <time>2010-01-01T06:44:13Z</time>
      </trkpt>
      <trkpt lat="51.31296420" lon="38.70406150">
        <ele>139.00000</ele>
        <time>2010-01-01T06:48:24Z</time>
      </trkpt>
      <trkpt lat="51.31028160" lon="38.70221610">
        <ele>165.00000</ele>
        <time>2010-01-01T06:50:21Z</time>
      </trkpt>
      <trkpt lat="51.30523800" lon="38.69779580">
        <ele>200.00000</ele>
        <time>2010-01-01T06:54:11Z</time>
      </trkpt>
      <trkpt lat="51.30309150" lon="38.69633670">
        <ele>204.00000</ele>
        <time>2010-01-01T06:55:45Z</time>
      </trkpt>
      <trkpt lat="51.30064990" lon="38.69526380">
        <ele>210.00000</ele>
        <time>2010-01-01T06:57:26Z</time>
      </trkpt>
      <trkpt lat="51.29890580" lon="38.69359010">
        <ele>220.00000</ele>
        <time>2010-01-01T06:58:47Z</time>
      </trkpt>
      <trkpt lat="51.29716160" lon="38.69071480">
        <ele>226.00000</ele>
        <time>2010-01-01T07:00:28Z</time>
      </trkpt>
      <trkpt lat="51.29292160" lon="38.68153090">
        <ele>222.00000</ele>
        <time>2010-01-01T07:05:13Z</time>
      </trkpt>
      <trkpt lat="51.29104300" lon="38.67410650">
        <ele>227.00000</ele>
        <time>2010-01-01T07:08:34Z</time>
      </trkpt>
      <trkpt lat="51.28996950" lon="38.66844170">
        <ele>232.00000</ele>
        <time>2010-01-01T07:11:02Z</time>
      </trkpt>
      <trkpt lat="51.28905690" lon="38.66595260">
        <ele>234.00000</ele>
        <time>2010-01-01T07:12:14Z</time>
      </trkpt>
      <trkpt lat="51.28422570" lon="38.65994450">
        <ele>230.00000</ele>
        <time>2010-01-01T07:16:19Z</time>
      </trkpt>
      <trkpt lat="51.28092400" lon="38.65792750">
        <ele>233.00000</ele>
        <time>2010-01-01T07:18:41Z</time>
      </trkpt>
      <trkpt lat="51.27783690" lon="38.65762710">
        <ele>241.00000</ele>
        <time>2010-01-01T07:20:45Z</time>
      </trkpt>
      <trkpt lat="51.27590400" lon="38.65741250">
        <ele>244.00000</ele>
        <time>2010-01-01T07:22:02Z</time>
      </trkpt>
      <trkpt lat="51.27289710" lon="38.65595340">
        <ele>246.00000</ele>
        <time>2010-01-01T07:24:08Z</time>
      </trkpt>
      <trkpt lat="51.27120560" lon="38.65569590">
        <ele>243.00000</ele>
        <time>2010-01-01T07:25:16Z</time>
      </trkpt>
      <trkpt lat="51.26924560" lon="38.65393630">
        <ele>242.00000</ele>
        <time>2010-01-01T07:26:46Z</time>
      </trkpt>
      <trkpt lat="51.26750030" lon="38.65247720">
        <ele>242.00000</ele>
        <time>2010-01-01T07:28:05Z</time>
      </trkpt>
      <trkpt lat="51.26433170" lon="38.65221970">
        <ele>238.00000</ele>
        <time>2010-01-01T07:30:12Z</time>
      </trkpt>
      <trkpt lat="51.26336490" lon="38.65470880">
        <ele>240.00000</ele>
        <time>2010-01-01T07:31:25Z</time>
      </trkpt>
      <trkpt lat="51.26245190" lon="38.65788450">
        <ele>240.00000</ele>
        <time>2010-01-01T07:32:53Z</time>
      </trkpt>
      <trkpt lat="51.26172680" lon="38.65831370">
        <ele>239.00000</ele>
        <time>2010-01-01T07:33:24Z</time>
      </trkpt>
      <trkpt lat="51.25955150" lon="38.65762710">
        <ele>239.00000</ele>
        <time>2010-01-01T07:34:52Z</time>
      </trkpt>
      <trkpt lat="51.25254150" lon="38.65642540">
        <ele>244.00000</ele>
        <time>2010-01-01T07:39:35Z</time>
      </trkpt>
      <trkpt lat="51.24878090" lon="38.65470880">
        <ele>247.00000</ele>
        <time>2010-01-01T07:42:11Z</time>
      </trkpt>
      <trkpt lat="51.23755110" lon="38.64762780">
        <ele>231.00000</ele>
        <time>2010-01-01T07:50:14Z</time>
      </trkpt>
      <trkpt lat="51.22613030" lon="38.63955970">
        <ele>235.00000</ele>
        <time>2010-01-01T07:58:34Z</time>
      </trkpt>
      <trkpt lat="51.22242140" lon="38.63672730">
        <ele>232.00000</ele>
        <time>2010-01-01T08:01:19Z</time>
      </trkpt>
      <trkpt lat="51.20903420" lon="38.62029070">
        <ele>224.00000</ele>
        <time>2010-01-01T08:12:35Z</time>
      </trkpt>
      <trkpt lat="51.20357610" lon="38.61372470">
        <ele>213.00000</ele>
        <time>2010-01-01T08:17:09Z</time>
      </trkpt>
      <trkpt lat="51.20177460" lon="38.61342430">
        <ele>213.00000</ele>
        <time>2010-01-01T08:18:21Z</time>
      </trkpt>
      <trkpt lat="51.19045250" lon="38.61741540">
        <ele>207.00000</ele>
        <time>2010-01-01T08:26:05Z</time>
      </trkpt>
      <trkpt lat="51.18141440" lon="38.62071990">
        <ele>197.00000</ele>
        <time>2010-01-01T08:32:16Z</time>
      </trkpt>
      <trkpt lat="51.17845510" lon="38.62153530">
        <ele>192.00000</ele>
        <time>2010-01-01T08:34:17Z</time>
      </trkpt>
      <trkpt lat="51.17646420" lon="38.62174980">
        <ele>185.00000</ele>
        <time>2010-01-01T08:35:37Z</time>
      </trkpt>
      <trkpt lat="51.17498440" lon="38.62106320">
        <ele>179.00000</ele>
        <time>2010-01-01T08:36:38Z</time>
      </trkpt>
      <trkpt lat="51.17371990" lon="38.62003320">
        <ele>168.00000</ele>
        <time>2010-01-01T08:37:35Z</time>
      </trkpt>
      <trkpt lat="51.17264360" lon="38.61857410">
        <ele>156.00000</ele>
        <time>2010-01-01T08:38:32Z</time>
      </trkpt>
      <trkpt lat="51.16965680" lon="38.61200800">
        <ele>132.00000</ele>
        <time>2010-01-01T08:41:55Z</time>
      </trkpt>
      <trkpt lat="51.16400570" lon="38.59956260">
        <ele>142.00000</ele>
        <time>2010-01-01T08:48:21Z</time>
      </trkpt>
      <trkpt lat="51.16015710" lon="38.59102240">
        <ele>139.00000</ele>
        <time>2010-01-01T08:52:45Z</time>
      </trkpt>
      <trkpt lat="51.15819230" lon="38.58716010">
        <ele>134.00000</ele>
        <time>2010-01-01T08:54:50Z</time>
      </trkpt>
      <trkpt lat="51.15698110" lon="38.58677380">
        <ele>128.00000</ele>
        <time>2010-01-01T08:55:39Z</time>
      </trkpt>
      <trkpt lat="51.15568910" lon="38.58754630">
        <ele>121.00000</ele>
        <time>2010-01-01T08:56:34Z</time>
      </trkpt>
      <trkpt lat="51.15323970" lon="38.59140870">
        <ele>118.00000</ele>
        <time>2010-01-01T08:58:52Z</time>
      </trkpt>
      <trkpt lat="51.15003630" lon="38.59690180">
        <ele>155.00000</ele>
        <time>2010-01-01T09:02:01Z</time>
      </trkpt>
      <trkpt lat="51.14922870" lon="38.59891890">
        <ele>170.00000</ele>
        <time>2010-01-01T09:03:01Z</time>
      </trkpt>
      <trkpt lat="51.14508270" lon="38.60312460">
        <ele>179.00000</ele>
        <time>2010-01-01T09:06:17Z</time>
      </trkpt>
      <trkpt lat="51.13985940" lon="38.60891810">
        <ele>175.00000</ele>
        <time>2010-01-01T09:10:32Z</time>
      </trkpt>
      <trkpt lat="51.13759750" lon="38.60939020">
        <ele>175.00000</ele>
        <time>2010-01-01T09:12:04Z</time>
      </trkpt>
      <trkpt lat="51.13261570" lon="38.61029140">
        <ele>176.00000</ele>
        <time>2010-01-01T09:15:24Z</time>
      </trkpt>
      <trkpt lat="51.12116890" lon="38.61243720">
        <ele>170.00000</ele>
        <time>2010-01-01T09:23:06Z</time>
      </trkpt>
      <trkpt lat="51.10764460" lon="38.61492630">
        <ele>160.00000</ele>
        <time>2010-01-01T09:32:11Z</time>
      </trkpt>
      <trkpt lat="51.09969520" lon="38.61638540">
        <ele>159.00000</ele>
        <time>2010-01-01T09:37:31Z</time>
      </trkpt>
      <trkpt lat="51.09764700" lon="38.61707210">
        <ele>160.00000</ele>
        <time>2010-01-01T09:38:55Z</time>
      </trkpt>
      <trkpt lat="51.09627250" lon="38.61861700">
        <ele>162.00000</ele>
        <time>2010-01-01T09:40:02Z</time>
      </trkpt>
      <trkpt lat="51.09476320" lon="38.62110610">
        <ele>157.00000</ele>
        <time>2010-01-01T09:41:29Z</time>
      </trkpt>
      <trkpt lat="51.09390070" lon="38.62303730">
        <ele>157.00000</ele>
        <time>2010-01-01T09:42:29Z</time>
      </trkpt>
      <trkpt lat="51.09314610" lon="38.62720010">
        <ele>156.00000</ele>
        <time>2010-01-01T09:44:18Z</time>
      </trkpt>
      <trkpt lat="51.09034280" lon="38.64548200">
        <ele>160.00000</ele>
        <time>2010-01-01T09:52:11Z</time>
      </trkpt>
      <trkpt lat="51.09492490" lon="38.64848610">
        <ele>140.00000</ele>
        <time>2010-01-01T09:55:29Z</time>
      </trkpt>
      <trkpt lat="51.09788960" lon="38.65037440">
        <ele>129.00000</ele>
        <time>2010-01-01T09:57:37Z</time>
      </trkpt>
      <trkpt lat="51.10028810" lon="38.65110390">
        <ele>128.00000</ele>
        <time>2010-01-01T09:59:15Z</time>
      </trkpt>
      <trkpt lat="51.10562370" lon="38.65028850">
        <ele>140.00000</ele>
        <time>2010-01-01T10:02:49Z</time>
      </trkpt>
      <trkpt lat="51.10861460" lon="38.65106100">
        <ele>134.00000</ele>
        <time>2010-01-01T10:04:50Z</time>
      </trkpt>
      <trkpt lat="51.11157840" lon="38.65256300">
        <ele>130.00000</ele>
        <time>2010-01-01T10:06:55Z</time>
      </trkpt>
      <trkpt lat="51.11459590" lon="38.65432260">
        <ele>147.00000</ele>
        <time>2010-01-01T10:09:04Z</time>
      </trkpt>
      <trkpt lat="51.11615840" lon="38.65518090">
        <ele>148.00000</ele>
        <time>2010-01-01T10:10:10Z</time>
      </trkpt>
      <trkpt lat="51.12022610" lon="38.65964410">
        <ele>161.00000</ele>
        <time>2010-01-01T10:13:27Z</time>
      </trkpt>
      <trkpt lat="51.12615200" lon="38.66625300">
        <ele>171.00000</ele>
        <time>2010-01-01T10:18:17Z</time>
      </trkpt>
      <trkpt lat="51.13425840" lon="38.67196080">
        <ele>176.00000</ele>
        <time>2010-01-01T10:24:12Z</time>
      </trkpt>
      <trkpt lat="51.14901330" lon="38.68170260">
        <ele>186.00000</ele>
        <time>2010-01-01T10:34:51Z</time>
      </trkpt>
      <trkpt lat="51.15681960" lon="38.68698120">
        <ele>188.00000</ele>
        <time>2010-01-01T10:40:31Z</time>
      </trkpt>
      <trkpt lat="51.16198720" lon="38.69625090">
        <ele>185.00000</ele>
        <time>2010-01-01T10:45:42Z</time>
      </trkpt>
      <trkpt lat="51.16871500" lon="38.71551990">
        <ele>205.00000</ele>
        <time>2010-01-01T10:54:56Z</time>
      </trkpt>
      <trkpt lat="51.17885870" lon="38.74092570">
        <ele>185.00000</ele>
        <time>2010-01-01T11:07:31Z</time>
      </trkpt>
      <trkpt lat="51.18448110" lon="38.75431530">
        <ele>192.00000</ele>
        <time>2010-01-01T11:14:16Z</time>
      </trkpt>
      <trkpt lat="51.18622960" lon="38.75761980">
        <ele>197.00000</ele>
        <time>2010-01-01T11:16:04Z</time>
      </trkpt>
      <trkpt lat="51.18819320" lon="38.75899310">
        <ele>200.00000</ele>
        <time>2010-01-01T11:17:30Z</time>
      </trkpt>
      <trkpt lat="51.19809050" lon="38.76405710">
        <ele>220.00000</ele>
        <time>2010-01-01T11:24:26Z</time>
      </trkpt>
      <trkpt lat="51.20037630" lon="38.76654620">
        <ele>226.00000</ele>
        <time>2010-01-01T11:26:17Z</time>
      </trkpt>
      <trkpt lat="51.20169390" lon="38.76813410">
        <ele>223.00000</ele>
        <time>2010-01-01T11:27:23Z</time>
      </trkpt>
      <trkpt lat="51.20720600" lon="38.76204010">
        <ele>225.00000</ele>
        <time>2010-01-01T11:31:52Z</time>
      </trkpt>
      <trkpt lat="51.21123880" lon="38.76131050">
        <ele>217.00000</ele>
        <time>2010-01-01T11:34:34Z</time>
      </trkpt>
      <trkpt lat="51.21545950" lon="38.76006600">
        <ele>223.00000</ele>
        <time>2010-01-01T11:37:26Z</time>
      </trkpt>
      <trkpt lat="51.21978720" lon="38.76178260">
        <ele>225.00000</ele>
        <time>2010-01-01T11:40:24Z</time>
      </trkpt>
      <trkpt lat="51.22518970" lon="38.76122470">
        <ele>226.00000</ele>
        <time>2010-01-01T11:44:01Z</time>
      </trkpt>
      <trkpt lat="51.22838780" lon="38.76637450">
        <ele>228.00000</ele>
        <time>2010-01-01T11:47:03Z</time>
      </trkpt>
      <trkpt lat="51.23212320" lon="38.76886360">
        <ele>227.00000</ele>
        <time>2010-01-01T11:49:45Z</time>
      </trkpt>
      <trkpt lat="51.23658380" lon="38.78551480">
        <ele>229.00000</ele>
        <time>2010-01-01T11:57:19Z</time>
      </trkpt>
      <trkpt lat="51.23752420" lon="38.78839010">
        <ele>226.00000</ele>
        <time>2010-01-01T11:58:40Z</time>
      </trkpt>
      <trkpt lat="51.24168870" lon="38.79426950">
        <ele>222.00000</ele>
        <time>2010-01-01T12:02:23Z</time>
      </trkpt>
      <trkpt lat="51.24402610" lon="38.79924770">
        <ele>220.00000</ele>
        <time>2010-01-01T12:04:59Z</time>
      </trkpt>
      <trkpt lat="51.24434840" lon="38.80032060">
        <ele>218.00000</ele>
        <time>2010-01-01T12:05:28Z</time>
      </trkpt>
      <trkpt lat="51.24389170" lon="38.80195140">
        <ele>214.00000</ele>
        <time>2010-01-01T12:06:13Z</time>
      </trkpt>
      <trkpt lat="51.24504690" lon="38.80422590">
        <ele>212.00000</ele>
        <time>2010-01-01T12:07:27Z</time>
      </trkpt>
      <trkpt lat="51.24236040" lon="38.80877490">
        <ele>213.00000</ele>
        <time>2010-01-01T12:10:03Z</time>
      </trkpt>
      <trkpt lat="51.23489100" lon="38.82044790">
        <ele>212.00000</ele>
        <time>2010-01-01T12:17:02Z</time>
      </trkpt>
      <trkpt lat="51.22970470" lon="38.82873050">
        <ele>205.00000</ele>
        <time>2010-01-01T12:21:55Z</time>
      </trkpt>
      <trkpt lat="51.22083550" lon="38.84272090">
        <ele>208.00000</ele>
        <time>2010-01-01T12:30:14Z</time>
      </trkpt>
      <trkpt lat="51.21946470" lon="38.84478090">
        <ele>206.00000</ele>
        <time>2010-01-01T12:31:30Z</time>
      </trkpt>
      <trkpt lat="51.21914210" lon="38.84671210">
        <ele>206.00000</ele>
        <time>2010-01-01T12:32:20Z</time>
      </trkpt>
      <trkpt lat="51.21502940" lon="38.87915610">
        <ele>191.00000</ele>
        <time>2010-01-01T12:46:10Z</time>
      </trkpt>
      <trkpt lat="51.21478740" lon="38.88211720">
        <ele>188.00000</ele>
        <time>2010-01-01T12:47:25Z</time>
      </trkpt>
      <trkpt lat="51.21583580" lon="38.88623710">
        <ele>187.00000</ele>
        <time>2010-01-01T12:49:16Z</time>
      </trkpt>
      <trkpt lat="51.21720680" lon="38.89112940">
        <ele>180.00000</ele>
        <time>2010-01-01T12:51:30Z</time>
      </trkpt>
      <trkpt lat="51.21965290" lon="38.89666550">
        <ele>173.00000</ele>
        <time>2010-01-01T12:54:20Z</time>
      </trkpt>
      <trkpt lat="51.22201820" lon="38.89743800">
        <ele>157.00000</ele>
        <time>2010-01-01T12:55:57Z</time>
      </trkpt>
      <trkpt lat="51.22285140" lon="38.89898300">
        <ele>147.00000</ele>
        <time>2010-01-01T12:56:48Z</time>
      </trkpt>
      <trkpt lat="51.22325460" lon="38.90117160">
        <ele>132.00000</ele>
        <time>2010-01-01T12:57:45Z</time>
      </trkpt>
      <trkpt lat="51.22344270" lon="38.90396110">
        <ele>115.00000</ele>
        <time>2010-01-01T12:58:56Z</time>
      </trkpt>
      <trkpt lat="51.22494780" lon="38.90795230">
        <ele>104.00000</ele>
        <time>2010-01-01T13:00:52Z</time>
      </trkpt>
      <trkpt lat="51.22817280" lon="38.91494750">
        <ele>107.00000</ele>
        <time>2010-01-01T13:04:30Z</time>
      </trkpt>
      <trkpt lat="51.22849530" lon="38.91644950">
        <ele>112.00000</ele>
        <time>2010-01-01T13:05:10Z</time>
      </trkpt>
      <trkpt lat="51.22811910" lon="38.92009730">
        <ele>113.00000</ele>
        <time>2010-01-01T13:06:43Z</time>
      </trkpt>
      <trkpt lat="51.22833410" lon="38.92224310">
        <ele>110.00000</ele>
        <time>2010-01-01T13:07:37Z</time>
      </trkpt>
      <trkpt lat="51.22981220" lon="38.92232890">
        <ele>112.00000</ele>
        <time>2010-01-01T13:08:36Z</time>
      </trkpt>
      <trkpt lat="51.23086020" lon="38.92580500">
        <ele>102.00000</ele>
        <time>2010-01-01T13:10:13Z</time>
      </trkpt>
      <trkpt lat="51.23284880" lon="38.93159860">
        <ele>108.00000</ele>
        <time>2010-01-01T13:12:59Z</time>
      </trkpt>
      <trkpt lat="51.23752420" lon="38.94842140">
        <ele>169.00000</ele>
        <time>2010-01-01T13:20:40Z</time>
      </trkpt>
      <trkpt lat="51.24056030" lon="38.96013730">
        <ele>203.00000</ele>
        <time>2010-01-01T13:25:58Z</time>
      </trkpt>
      <trkpt lat="51.24085580" lon="38.96661750">
        <ele>208.00000</ele>
        <time>2010-01-01T13:28:41Z</time>
      </trkpt>
      <trkpt lat="51.24072150" lon="38.97871970">
        <ele>209.00000</ele>
        <time>2010-01-01T13:33:44Z</time>
      </trkpt>
      <trkpt lat="51.24099020" lon="38.98408410">
        <ele>212.00000</ele>
        <time>2010-01-01T13:35:59Z</time>
      </trkpt>
      <trkpt lat="51.24273650" lon="38.99095050">
        <ele>212.00000</ele>
        <time>2010-01-01T13:39:04Z</time>
      </trkpt>
      <trkpt lat="51.24375740" lon="38.99584290">
        <ele>211.00000</ele>
        <time>2010-01-01T13:41:14Z</time>
      </trkpt>
      <trkpt lat="51.24305890" lon="39.00279520">
        <ele>208.00000</ele>
        <time>2010-01-01T13:44:10Z</time>
      </trkpt>
      <trkpt lat="51.24279020" lon="39.01215070">
        <ele>203.00000</ele>
        <time>2010-01-01T13:48:05Z</time>
      </trkpt>
      <trkpt lat="51.24195740" lon="39.01631350">
        <ele>203.00000</ele>
        <time>2010-01-01T13:49:54Z</time>
      </trkpt>
      <trkpt lat="51.24125890" lon="39.01923170">
        <ele>202.00000</ele>
        <time>2010-01-01T13:51:13Z</time>
      </trkpt>
      <trkpt lat="51.23967370" lon="39.02631280">
        <ele>201.00000</ele>
        <time>2010-01-01T13:54:21Z</time>
      </trkpt>
      <trkpt lat="51.23822280" lon="39.03043270">
        <ele>196.00000</ele>
        <time>2010-01-01T13:56:20Z</time>
      </trkpt>
      <trkpt lat="51.23744360" lon="39.03463840">
        <ele>188.00000</ele>
        <time>2010-01-01T13:58:10Z</time>
      </trkpt>
      <trkpt lat="51.23908260" lon="39.03901570">
        <ele>181.00000</ele>
        <time>2010-01-01T14:00:17Z</time>
      </trkpt>
      <trkpt lat="51.23814220" lon="39.04150480">
        <ele>175.00000</ele>
        <time>2010-01-01T14:01:30Z</time>
      </trkpt>
      <trkpt lat="51.23792720" lon="39.04339310">
        <ele>171.00000</ele>
        <time>2010-01-01T14:02:18Z</time>
      </trkpt>
      <trkpt lat="51.23599270" lon="39.04678340">
        <ele>151.00000</ele>
        <time>2010-01-01T14:04:13Z</time>
      </trkpt>
      <trkpt lat="51.23260690" lon="39.05171870">
        <ele>130.00000</ele>
        <time>2010-01-01T14:07:17Z</time>
      </trkpt>
      <trkpt lat="51.23110210" lon="39.05553810">
        <ele>166.00000</ele>
        <time>2010-01-01T14:09:10Z</time>
      </trkpt>
      <trkpt lat="51.23016150" lon="39.05807010">
        <ele>173.00000</ele>
        <time>2010-01-01T14:10:24Z</time>
      </trkpt>
      <trkpt lat="51.22975840" lon="39.05995840">
        <ele>176.00000</ele>
        <time>2010-01-01T14:11:14Z</time>
      </trkpt>
      <trkpt lat="51.24254840" lon="39.05669680">
        <ele>188.00000</ele>
        <time>2010-01-01T14:19:52Z</time>
      </trkpt>
      <trkpt lat="51.26030350" lon="39.05214780">
        <ele>204.00000</ele>
        <time>2010-01-01T14:31:52Z</time>
      </trkpt>
      <trkpt lat="51.26591600" lon="39.05064580">
        <ele>202.00000</ele>
        <time>2010-01-01T14:35:40Z</time>
      </trkpt>
      <trkpt lat="51.28057510" lon="39.04382220">
        <ele>210.00000</ele>
        <time>2010-01-01T14:45:51Z</time>
      </trkpt>
      <trkpt lat="51.28739290" lon="39.04047480">
        <ele>208.00000</ele>
        <time>2010-01-01T14:50:36Z</time>
      </trkpt>
      <trkpt lat="51.30301110" lon="39.03948780">
        <ele>208.00000</ele>
        <time>2010-01-01T15:01:02Z</time>
      </trkpt>
      <trkpt lat="51.30574770" lon="39.03914450">
        <ele>209.00000</ele>
        <time>2010-01-01T15:02:52Z</time>
      </trkpt>
      <trkpt lat="51.30751840" lon="39.03781410">
        <ele>213.00000</ele>
        <time>2010-01-01T15:04:10Z</time>
      </trkpt>
      <trkpt lat="51.31140830" lon="39.03300760">
        <ele>215.00000</ele>
        <time>2010-01-01T15:07:27Z</time>
      </trkpt>
      <trkpt lat="51.31452000" lon="39.02901640">
        <ele>215.00000</ele>
        <time>2010-01-01T15:10:07Z</time>
      </trkpt>
      <trkpt lat="51.31645130" lon="39.02768610">
        <ele>218.00000</ele>
        <time>2010-01-01T15:11:31Z</time>
      </trkpt>
      <trkpt lat="51.31958950" lon="39.02764320">
        <ele>213.00000</ele>
        <time>2010-01-01T15:13:37Z</time>
      </trkpt>
      <trkpt lat="51.32484610" lon="39.02764320">
        <ele>215.00000</ele>
        <time>2010-01-01T15:17:07Z</time>
      </trkpt>
      <trkpt lat="51.32961940" lon="39.02639860">
        <ele>215.00000</ele>
        <time>2010-01-01T15:20:21Z</time>
      </trkpt>
      <trkpt lat="51.33562560" lon="39.02472490">
        <ele>212.00000</ele>
        <time>2010-01-01T15:24:25Z</time>
      </trkpt>
      <trkpt lat="51.33827990" lon="39.02425280">
        <ele>216.00000</ele>
        <time>2010-01-01T15:26:12Z</time>
      </trkpt>
      <trkpt lat="51.33911100" lon="39.02459620">
        <ele>216.00000</ele>
        <time>2010-01-01T15:26:46Z</time>
      </trkpt>
      <trkpt lat="51.33967400" lon="39.02674190">
        <ele>218.00000</ele>
        <time>2010-01-01T15:27:44Z</time>
      </trkpt>
      <trkpt lat="51.34010300" lon="39.03330800">
        <ele>214.00000</ele>
        <time>2010-01-01T15:30:29Z</time>
      </trkpt>
      <trkpt lat="51.34037110" lon="39.03807160">
        <ele>208.00000</ele>
        <time>2010-01-01T15:32:29Z</time>
      </trkpt>
      <trkpt lat="51.34007620" lon="39.04257770">
        <ele>203.00000</ele>
        <time>2010-01-01T15:34:22Z</time>
      </trkpt>
      <trkpt lat="51.33868210" lon="39.05759810">
        <ele>196.00000</ele>
        <time>2010-01-01T15:40:42Z</time>
      </trkpt>
      <trkpt lat="51.33889660" lon="39.06150340">
        <ele>199.00000</ele>
        <time>2010-01-01T15:42:20Z</time>
      </trkpt>
      <trkpt lat="51.33959360" lon="39.07098770">
        <ele>191.00000</ele>
        <time>2010-01-01T15:46:19Z</time>
      </trkpt>
      <trkpt lat="51.33927190" lon="39.07403460">
        <ele>186.00000</ele>
        <time>2010-01-01T15:47:36Z</time>
      </trkpt>
      <trkpt lat="51.33685900" lon="39.08274650">
        <ele>181.00000</ele>
        <time>2010-01-01T15:51:34Z</time>
      </trkpt>
      <trkpt lat="51.33345380" lon="39.08931250">
        <ele>175.00000</ele>
        <time>2010-01-01T15:55:08Z</time>
      </trkpt>
      <trkpt lat="51.33002170" lon="39.09519190">
        <ele>171.00000</ele>
        <time>2010-01-01T15:58:29Z</time>
      </trkpt>
      <trkpt lat="51.32396110" lon="39.10600660">
        <ele>164.00000</ele>
        <time>2010-01-01T16:04:32Z</time>
      </trkpt>
      <trkpt lat="51.32272740" lon="39.10991190">
        <ele>169.00000</ele>
        <time>2010-01-01T16:06:22Z</time>
      </trkpt>
      <trkpt lat="51.32243240" lon="39.11313050">
        <ele>180.00000</ele>
        <time>2010-01-01T16:07:43Z</time>
      </trkpt>
      <trkpt lat="51.32278110" lon="39.11716460">
        <ele>187.00000</ele>
        <time>2010-01-01T16:09:25Z</time>
      </trkpt>
      <trkpt lat="51.32422930" lon="39.12115570">
        <ele>189.00000</ele>
        <time>2010-01-01T16:11:20Z</time>
      </trkpt>
      <trkpt lat="51.32809090" lon="39.13136950">
        <ele>184.00000</ele>
        <time>2010-01-01T16:16:19Z</time>
      </trkpt>
      <trkpt lat="51.32897590" lon="39.13553230">
        <ele>177.00000</ele>
        <time>2010-01-01T16:18:09Z</time>
      </trkpt>
      <trkpt lat="51.32913680" lon="39.14072510">
        <ele>162.00000</ele>
        <time>2010-01-01T16:20:19Z</time>
      </trkpt>
      <trkpt lat="51.32857360" lon="39.14338580">
        <ele>152.00000</ele>
        <time>2010-01-01T16:21:29Z</time>
      </trkpt>
      <trkpt lat="51.32798370" lon="39.14694780">
        <ele>150.00000</ele>
        <time>2010-01-01T16:23:02Z</time>
      </trkpt>
      <trkpt lat="51.32784960" lon="39.15089600">
        <ele>140.00000</ele>
        <time>2010-01-01T16:24:40Z</time>
      </trkpt>
      <trkpt lat="51.32849320" lon="39.15544500">
        <ele>116.00000</ele>
        <time>2010-01-01T16:26:37Z</time>
      </trkpt>
      <trkpt lat="51.32953900" lon="39.15952200">
        <ele>87.000000</ele>
        <time>2010-01-01T16:28:27Z</time>
      </trkpt>
      <trkpt lat="51.33122830" lon="39.16312690">
        <ele>88.000000</ele>
        <time>2010-01-01T16:30:20Z</time>
      </trkpt>
      <trkpt lat="51.33436550" lon="39.16595930">
        <ele>88.000000</ele>
        <time>2010-01-01T16:32:44Z</time>
      </trkpt>
      <trkpt lat="51.34012980" lon="39.16990750">
        <ele>86.000000</ele>
        <time>2010-01-01T16:36:55Z</time>
      </trkpt>
      <trkpt lat="51.34500880" lon="39.17316910">
        <ele>91.000000</ele>
        <time>2010-01-01T16:40:27Z</time>
      </trkpt>
      <trkpt lat="51.34760890" lon="39.17355530">
        <ele>98.000000</ele>
        <time>2010-01-01T16:42:11Z</time>
      </trkpt>
      <trkpt lat="51.35069130" lon="39.17355530">
        <ele>112.00000</ele>
        <time>2010-01-01T16:44:15Z</time>
      </trkpt>
      <trkpt lat="51.35369320" lon="39.17475700">
        <ele>123.00000</ele>
        <time>2010-01-01T16:46:19Z</time>
      </trkpt>
      <trkpt lat="51.35570320" lon="39.17643070">
        <ele>131.00000</ele>
        <time>2010-01-01T16:47:49Z</time>
      </trkpt>
      <trkpt lat="51.35787390" lon="39.17986390">
        <ele>129.00000</ele>
        <time>2010-01-01T16:49:51Z</time>
      </trkpt>
      <trkpt lat="51.36250990" lon="39.18943400">
        <ele>143.00000</ele>
        <time>2010-01-01T16:54:54Z</time>
      </trkpt>
      <trkpt lat="51.36735970" lon="39.19874660">
        <ele>147.00000</ele>
        <time>2010-01-01T16:59:57Z</time>
      </trkpt>
      <trkpt lat="51.37065510" lon="39.20526980">
        <ele>163.00000</ele>
        <time>2010-01-01T17:03:27Z</time>
      </trkpt>
      <trkpt lat="51.37638810" lon="39.21299450">
        <ele>132.00000</ele>
        <time>2010-01-01T17:08:27Z</time>
      </trkpt>
      <trkpt lat="51.38351310" lon="39.22029010">
        <ele>128.00000</ele>
        <time>2010-01-01T17:14:05Z</time>
      </trkpt>
      <trkpt lat="51.39002100" lon="39.22827240">
        <ele>140.00000</ele>
        <time>2010-01-01T17:19:33Z</time>
      </trkpt>
      <trkpt lat="51.39197590" lon="39.23041820">
        <ele>144.00000</ele>
        <time>2010-01-01T17:21:08Z</time>
      </trkpt>
      <trkpt lat="51.39840240" lon="39.23616880">
        <ele>142.00000</ele>
        <time>2010-01-01T17:26:03Z</time>
      </trkpt>
      <trkpt lat="51.40458700" lon="39.24200530">
        <ele>141.00000</ele>
        <time>2010-01-01T17:30:50Z</time>
      </trkpt>
      <trkpt lat="51.40747820" lon="39.24509520">
        <ele>150.00000</ele>
        <time>2010-01-01T17:33:09Z</time>
      </trkpt>
      <trkpt lat="51.40884340" lon="39.24715510">
        <ele>152.00000</ele>
        <time>2010-01-01T17:34:24Z</time>
      </trkpt>
      <trkpt lat="51.41026210" lon="39.25045960">
        <ele>152.00000</ele>
        <time>2010-01-01T17:36:05Z</time>
      </trkpt>
      <trkpt lat="51.41248380" lon="39.25792690">
        <ele>146.00000</ele>
        <time>2010-01-01T17:39:31Z</time>
      </trkpt>
      <trkpt lat="51.41786360" lon="39.27899830">
        <ele>138.00000</ele>
        <time>2010-01-01T17:49:00Z</time>
      </trkpt>
      <trkpt lat="51.42375120" lon="39.30092810">
        <ele>132.00000</ele>
        <time>2010-01-01T17:58:56Z</time>
      </trkpt>
      <trkpt lat="51.43929620" lon="39.30234430">
        <ele>151.00000</ele>
        <time>2010-01-01T18:09:19Z</time>
      </trkpt>
      <trkpt lat="51.45761690" lon="39.30444710">
        <ele>144.00000</ele>
        <time>2010-01-01T18:21:34Z</time>
      </trkpt>
      <trkpt lat="51.47919120" lon="39.30693620">
        <ele>134.00000</ele>
        <time>2010-01-01T18:36:00Z</time>
      </trkpt>
      <trkpt lat="51.49535860" lon="39.30848120">
        <ele>126.00000</ele>
        <time>2010-01-01T18:46:48Z</time>
      </trkpt>
      <trkpt lat="51.50179720" lon="39.30895320">
        <ele>118.00000</ele>
        <time>2010-01-01T18:51:06Z</time>
      </trkpt>
      <trkpt lat="51.50911640" lon="39.30500500">
        <ele>130.00000</ele>
        <time>2010-01-01T18:56:15Z</time>
      </trkpt>
      <trkpt lat="51.52158830" lon="39.29800980">
        <ele>124.00000</ele>
        <time>2010-01-01T19:05:04Z</time>
      </trkpt>
      <trkpt lat="51.54171770" lon="39.28663730">
        <ele>112.00000</ele>
        <time>2010-01-01T19:19:18Z</time>
      </trkpt>
      <trkpt lat="51.55407390" lon="39.27972790">
        <ele>109.00000</ele>
        <time>2010-01-01T19:28:02Z</time>
      </trkpt>
      <trkpt lat="51.56872090" lon="39.27131650">
        <ele>124.00000</ele>
        <time>2010-01-01T19:38:24Z</time>
      </trkpt>
      <trkpt lat="51.57752290" lon="39.26625250">
        <ele>120.00000</ele>
        <time>2010-01-01T19:44:39Z</time>
      </trkpt>
      <trkpt lat="51.58002980" lon="39.26333420">
        <ele>124.00000</ele>
        <time>2010-01-01T19:46:43Z</time>
      </trkpt>
      <trkpt lat="51.58669640" lon="39.25496570">
        <ele>114.00000</ele>
        <time>2010-01-01T19:52:21Z</time>
      </trkpt>
      <trkpt lat="51.58962940" lon="39.25118920">
        <ele>116.00000</ele>
        <time>2010-01-01T19:54:51Z</time>
      </trkpt>
      <trkpt lat="51.59072260" lon="39.25076000">
        <ele>115.00000</ele>
        <time>2010-01-01T19:55:36Z</time>
      </trkpt>
      <trkpt lat="51.59640130" lon="39.25183290">
        <ele>119.00000</ele>
        <time>2010-01-01T19:59:25Z</time>
      </trkpt>
      <trkpt lat="51.60071980" lon="39.25307750">
        <ele>116.00000</ele>
        <time>2010-01-01T20:02:21Z</time>
      </trkpt>
      <trkpt lat="51.60647720" lon="39.25526610">
        <ele>111.00000</ele>
        <time>2010-01-01T20:06:18Z</time>
      </trkpt>
      <trkpt lat="51.61425920" lon="39.25805560">
        <ele>104.00000</ele>
        <time>2010-01-01T20:11:37Z</time>
      </trkpt>
      <trkpt lat="51.61974850" lon="39.25912850">
        <ele>103.00000</ele>
        <time>2010-01-01T20:15:18Z</time>
      </trkpt>
      <trkpt lat="51.62158690" lon="39.26058760">
        <ele>95.000000</ele>
        <time>2010-01-01T20:16:40Z</time>
      </trkpt>
      <trkpt lat="51.62222640" lon="39.26161760">
        <ele>98.000000</ele>
        <time>2010-01-01T20:17:16Z</time>
      </trkpt>
      <trkpt lat="51.62299910" lon="39.26140300">
        <ele>98.000000</ele>
        <time>2010-01-01T20:17:48Z</time>
      </trkpt>
      <trkpt lat="51.62259940" lon="39.26024430">
        <ele>99.000000</ele>
        <time>2010-01-01T20:18:21Z</time>
      </trkpt>
      <trkpt lat="51.62214650" lon="39.25715440">
        <ele>97.000000</ele>
        <time>2010-01-01T20:19:40Z</time>
      </trkpt>
      <trkpt lat="51.62185340" lon="39.25380700">
        <ele>96.000000</ele>
        <time>2010-01-01T20:21:04Z</time>
      </trkpt>
      <trkpt lat="51.62251950" lon="39.24822800">
        <ele>94.000000</ele>
        <time>2010-01-01T20:23:25Z</time>
      </trkpt>
      <trkpt lat="51.62329210" lon="39.24277780">
        <ele>97.000000</ele>
        <time>2010-01-01T20:25:44Z</time>
      </trkpt>
      <trkpt lat="51.62369180" lon="39.24020290">
        <ele>94.000000</ele>
        <time>2010-01-01T20:26:50Z</time>
      </trkpt>
      <trkpt lat="51.62329210" lon="39.23749920">
        <ele>95.000000</ele>
        <time>2010-01-01T20:27:59Z</time>
      </trkpt>
      <trkpt lat="51.62313230" lon="39.23702710">
        <ele>96.000000</ele>
        <time>2010-01-01T20:28:12Z</time>
      </trkpt>
      <trkpt lat="51.62398490" lon="39.23355100">
        <ele>97.000000</ele>
        <time>2010-01-01T20:29:45Z</time>
      </trkpt>
      <trkpt lat="51.62843400" lon="39.22998900">
        <ele>103.00000</ele>
        <time>2010-01-01T20:33:04Z</time>
      </trkpt>
      <trkpt lat="51.63192370" lon="39.23174850">
        <ele>106.00000</ele>
        <time>2010-01-01T20:35:30Z</time>
      </trkpt>
    </trkseg>
  </trk>
</gpx>

